Time;durP1;ratioP1;P1;durP2;ratioP2;P2;SDS_P1;SDS_P2;PMS_P1;PMS_P2;Temp;Humidity;BMP_temperature;BMP_pressure;BME280_temperature;BME280_humidity;BME280_pressure;Samples;Min_cycle;Max_cycle;Signal;HPM_P1;HPM_P2
2022/02/04 00:04:24;;;;;;;20.23;15.17;;;8.50;99.90;;;;;;5056232;28;20460;-47
2022/02/04 00:07:12;;;;;;;18.10;13.90;;;8.50;99.90;;;;;;5054791;28;20413;-45
2022/02/04 00:10:07;;;;;;;19.30;14.00;;;8.50;99.90;;;;;;5054015;28;20474;-45
2022/02/04 00:20:53;;;;;;;19.17;15.33;;;8.40;99.90;;;;;;5054136;28;20441;-45
2022/02/04 00:23:23;;;;;;;19.13;15.57;;;8.40;99.90;;;;;;5054121;28;20429;-46
2022/02/04 00:26:04;;;;;;;20.70;14.47;;;8.50;99.90;;;;;;5054033;28;20441;-45
2022/02/04 00:28:43;;;;;;;20.57;14.93;;;8.50;99.90;;;;;;5071734;28;20428;-46
2022/02/04 00:31:23;;;;;;;18.27;15.20;;;8.50;99.90;;;;;;5074022;28;20944;-45
2022/02/04 00:33:55;;;;;;;23.67;16.67;;;8.50;99.90;;;;;;5074053;28;20420;-45
2022/02/04 00:36:26;;;;;;;21.87;16.03;;;8.50;99.90;;;;;;5074392;28;20465;-44
2022/02/04 00:38:56;;;;;;;22.30;16.20;;;8.50;99.90;;;;;;5075662;28;20792;-45
2022/02/04 00:41:26;;;;;;;22.37;14.97;;;8.50;99.90;;;;;;5075922;28;20430;-46
2022/02/04 00:43:55;;;;;;;24.70;15.50;;;8.60;99.90;;;;;;5075125;28;20456;-46
2022/02/04 00:46:27;;;;;;;22.13;16.60;;;8.60;99.90;;;;;;5075302;28;20445;-46
2022/02/04 00:49:02;;;;;;;20.03;16.67;;;8.40;99.90;;;;;;5073796;28;20438;-46
2022/02/04 00:51:33;;;;;;;20.43;15.33;;;8.50;99.90;;;;;;5074216;28;20476;-45
2022/02/04 00:54:14;;;;;;;23.10;16.27;;;8.60;99.90;;;;;;5068781;28;20538;-44
2022/02/04 00:56:50;;;;;;;26.40;17.20;;;8.60;99.90;;;;;;5053659;28;20982;-45
2022/02/04 01:13:21;;;;;;;25.97;17.67;;;8.60;99.90;;;;;;5053237;28;20417;-46
2022/02/04 01:26:46;;;;;;;24.10;16.40;;;8.50;99.90;;;;;;5056576;28;20437;-46
2022/02/04 01:29:13;;;;;;;20.70;16.80;;;8.50;99.90;;;;;;5071773;28;20974;-45
2022/02/04 01:31:40;;;;;;;27.00;18.73;;;8.50;99.90;;;;;;5073023;28;20434;-45
2022/02/04 01:34:06;;;;;;;27.57;17.93;;;8.50;99.90;;;;;;5074751;28;20503;-46
2022/02/04 01:36:34;;;;;;;21.10;16.70;;;8.50;99.90;;;;;;5080160;28;20444;-45
2022/02/04 01:39:01;;;;;;;24.23;19.10;;;8.50;99.90;;;;;;5078965;28;20805;-45
2022/02/04 01:41:28;;;;;;;24.67;17.93;;;8.60;99.90;;;;;;5079386;28;20900;-46
2022/02/04 01:43:55;;;;;;;21.13;16.03;;;8.60;99.90;;;;;;5072666;28;20428;-46
2022/02/04 01:46:21;;;;;;;25.83;18.63;;;8.60;99.90;;;;;;5072354;28;20913;-46
2022/02/04 01:48:49;;;;;;;24.50;17.80;;;8.60;99.90;;;;;;5071982;28;20416;-46
2022/02/04 01:51:16;;;;;;;26.63;18.17;;;8.60;99.90;;;;;;5072566;28;20479;-46
2022/02/04 01:53:45;;;;;;;27.53;20.03;;;8.60;99.90;;;;;;5063784;28;20466;-46
2022/02/04 01:56:13;;;;;;;24.40;17.80;;;8.60;99.90;;;;;;5052448;28;20445;-46
2022/02/04 01:58:41;;;;;;;21.53;17.50;;;8.60;99.90;;;;;;5052158;28;21146;-45
2022/02/04 02:01:08;;;;;;;23.70;18.43;;;8.40;99.90;;;;;;5052362;28;20427;-46
2022/02/04 02:03:35;;;;;;;25.73;18.17;;;8.60;99.90;;;;;;5052188;28;20966;-46
2022/02/04 02:06:03;;;;;;;26.13;19.63;;;8.50;99.90;;;;;;5052514;28;20409;-46
2022/02/04 02:08:30;;;;;;;24.80;17.77;;;8.60;99.90;;;;;;5051731;28;20421;-47
2022/02/04 02:10:57;;;;;;;27.40;19.80;;;8.60;99.90;;;;;;5051809;28;20547;-46
2022/02/04 02:13:33;;;;;;;26.43;17.73;;;8.60;99.90;;;;;;5051965;28;20985;-46
2022/02/04 02:16:12;;;;;;;22.80;16.87;;;8.60;99.90;;;;;;5052185;28;20417;-47
2022/02/04 02:35:28;;;;;;;24.27;18.03;;;8.60;99.90;;;;;;5052525;28;21196;-44
2022/02/04 02:43:40;;;;;;;23.57;16.97;;;8.50;99.90;;;;;;5053727;28;20416;-46
2022/02/04 02:46:36;;;;;;;24.70;17.23;;;8.50;99.90;;;;;;5070921;28;20549;-46
2022/02/04 02:49:22;;;;;;;24.50;17.67;;;8.50;99.90;;;;;;5074563;28;20418;-46
2022/02/04 02:51:59;;;;;;;26.07;18.93;;;8.50;99.90;;;;;;5079169;28;20487;-46
2022/02/04 02:55:02;;;;;;;25.40;18.77;;;8.50;99.90;;;;;;5065301;28;20440;-45
2022/02/04 03:00:30;;;;;;;24.57;19.37;;;8.50;99.90;;;;;;5040924;28;20413;-46
2022/02/04 03:03:01;;;;;;;26.53;19.30;;;8.50;99.90;;;;;;5055953;28;20462;-45
2022/02/04 03:05:28;;;;;;;25.27;18.93;;;8.50;99.90;;;;;;5058933;28;20960;-44
2022/02/04 03:07:55;;;;;;;26.33;19.10;;;8.50;99.90;;;;;;5057271;28;20409;-45
2022/02/04 03:10:23;;;;;;;25.10;18.63;;;8.50;99.90;;;;;;5057797;28;20449;-46
2022/02/04 03:12:49;;;;;;;26.50;19.20;;;8.50;99.90;;;;;;5058021;28;20545;-46
2022/02/04 03:15:16;;;;;;;26.93;19.13;;;8.40;99.90;;;;;;5056752;28;20508;-46
2022/02/04 03:17:45;;;;;;;24.53;18.30;;;8.40;99.90;;;;;;5056757;28;20401;-47
2022/02/04 03:20:13;;;;;;;23.63;18.40;;;8.40;99.90;;;;;;5057957;28;20445;-45
2022/02/04 03:22:40;;;;;;;31.40;20.50;;;8.40;99.90;;;;;;5058051;28;20576;-45
2022/02/04 03:25:10;;;;;;;27.13;18.93;;;8.40;99.90;;;;;;5056821;28;20406;-45
2022/02/04 03:27:43;;;;;;;23.83;18.40;;;8.40;99.90;;;;;;5056474;28;20442;-45
2022/02/04 03:30:16;;;;;;;30.97;20.77;;;8.40;99.90;;;;;;5056420;28;20982;-45
2022/02/04 03:32:50;;;;;;;30.10;19.93;;;8.40;99.90;;;;;;5057236;28;20405;-45
2022/02/04 03:35:20;;;;;;;25.77;18.17;;;8.40;99.90;;;;;;5055634;28;20445;-45
2022/02/04 03:37:48;;;;;;;24.70;19.37;;;8.20;99.90;;;;;;5055326;28;20966;-45
2022/02/04 03:40:14;;;;;;;26.57;19.93;;;8.40;99.90;;;;;;5054816;28;20406;-45
2022/02/04 03:42:42;;;;;;;27.43;19.53;;;8.40;99.90;;;;;;5054741;28;20405;-44
2022/02/04 03:45:09;;;;;;;25.30;19.23;;;8.40;99.90;;;;;;5062273;28;20495;-45
2022/02/04 03:47:36;;;;;;;23.53;18.13;;;8.40;99.90;;;;;;5074718;28;20437;-46
2022/02/04 03:50:03;;;;;;;27.47;19.07;;;8.50;99.90;;;;;;5074513;28;20441;-46
2022/02/04 03:52:29;;;;;;;25.30;18.23;;;8.50;99.90;;;;;;5074899;28;20416;-45
2022/02/04 03:54:56;;;;;;;27.33;19.47;;;8.50;99.90;;;;;;5055667;28;20757;-46
2022/02/04 03:57:22;;;;;;;23.50;18.50;;;8.50;99.90;;;;;;5055447;28;20435;-45
2022/02/04 03:59:50;;;;;;;24.00;18.80;;;8.50;99.90;;;;;;5054857;28;20783;-46
2022/02/04 04:02:17;;;;;;;23.80;18.27;;;8.50;99.90;;;;;;5054968;28;20439;-45
2022/02/04 04:04:44;;;;;;;30.07;18.43;;;8.50;99.90;;;;;;5055119;28;20459;-45
2022/02/04 04:07:10;;;;;;;28.53;19.77;;;8.50;99.90;;;;;;5054412;28;20417;-45
2022/02/04 04:09:42;;;;;;;25.60;19.00;;;8.40;99.90;;;;;;5053795;28;20459;-45
2022/02/04 04:12:10;;;;;;;30.03;18.47;;;8.40;99.90;;;;;;5054164;28;20484;-44
2022/02/04 04:14:36;;;;;;;28.03;20.00;;;8.40;99.90;;;;;;5053983;28;20421;-46
2022/02/04 04:17:04;;;;;;;29.87;19.63;;;8.40;99.90;;;;;;5054399;28;20431;-45
2022/02/04 04:19:31;;;;;;;26.53;19.60;;;8.40;99.90;;;;;;5053698;28;20410;-45
2022/02/04 04:21:58;;;;;;;28.57;18.57;;;8.40;99.90;;;;;;5054105;28;20769;-45
2022/02/04 04:24:24;;;;;;;23.97;17.70;;;8.40;99.90;;;;;;5053961;28;20433;-46
2022/02/04 04:26:51;;;;;;;27.63;19.17;;;8.40;99.90;;;;;;5053840;28;20446;-45
2022/02/04 04:29:17;;;;;;;26.03;19.50;;;8.20;99.90;;;;;;5053735;28;20776;-45
2022/02/04 04:31:44;;;;;;;26.80;19.83;;;8.30;99.90;;;;;;5054105;28;20489;-45
2022/02/04 04:34:12;;;;;;;29.20;20.40;;;8.30;99.90;;;;;;5054130;28;20425;-46
2022/02/04 04:36:38;;;;;;;28.00;20.17;;;8.30;99.90;;;;;;5054545;28;20416;-45
2022/02/04 04:39:09;;;;;;;29.20;19.63;;;8.30;99.90;;;;;;5053762;28;20792;-45
2022/02/04 04:41:48;;;;;;;28.03;20.00;;;8.40;99.90;;;;;;5054290;28;20438;-45
2022/02/04 04:44:49;;;;;;;26.73;18.40;;;8.30;99.90;;;;;;5054828;28;20421;-45
2022/02/04 05:28:42;;;;;;;24.07;18.83;;;8.20;99.90;;;;;;5055539;28;20455;-46
2022/02/04 05:31:09;;;;;;;25.07;19.90;;;8.30;99.90;;;;;;5056720;28;20832;-45
2022/02/04 05:33:35;;;;;;;28.50;18.93;;;8.30;99.90;;;;;;5055489;28;20461;-45
2022/02/04 05:36:04;;;;;;;29.23;19.47;;;8.30;99.90;;;;;;5054047;28;20919;-45
2022/02/04 05:38:33;;;;;;;26.90;18.33;;;8.30;99.90;;;;;;5053644;28;20434;-46
2022/02/04 05:41:00;;;;;;;24.83;18.90;;;8.30;99.90;;;;;;5054012;28;20431;-44
2022/02/04 05:43:30;;;;;;;31.40;19.43;;;8.30;99.90;;;;;;5053844;28;21008;-47
2022/02/04 05:46:01;;;;;;;25.33;18.57;;;8.30;99.90;;;;;;5067673;28;20904;-46
2022/02/04 05:48:29;;;;;;;27.00;19.17;;;8.30;99.90;;;;;;5072610;28;20433;-46
2022/02/04 05:51:22;;;;;;;24.00;18.63;;;8.30;99.90;;;;;;5072283;28;20543;-45
2022/02/04 05:53:56;;;;;;;24.33;18.47;;;8.30;99.90;;;;;;5062825;28;20443;-46
2022/02/04 05:56:31;;;;;;;36.37;25.40;;;8.30;99.90;;;;;;5052369;28;20430;-45
2022/02/04 05:59:05;;;;;;;28.53;19.20;;;8.30;99.90;;;;;;5051832;28;20839;-45
2022/02/04 06:01:41;;;;;;;27.43;18.90;;;8.30;99.90;;;;;;5052594;28;20402;-45
2022/02/04 06:04:22;;;;;;;28.87;18.47;;;8.20;99.90;;;;;;5052272;28;20462;-45
2022/02/04 06:10:01;;;;;;;27.80;19.10;;;8.30;99.90;;;;;;5051012;28;20441;-44
2022/02/04 06:12:51;;;;;;;23.40;18.33;;;8.30;99.90;;;;;;5052319;28;20896;-44
2022/02/04 06:23:30;;;;;;;27.90;19.20;;;8.30;99.90;;;;;;5051903;28;20835;-45
2022/02/04 06:26:00;;;;;;;27.13;19.30;;;8.20;99.90;;;;;;5052119;28;20416;-45
2022/02/04 06:28:28;;;;;;;27.33;18.80;;;8.30;99.90;;;;;;5051571;28;20451;-45
2022/02/04 06:30:54;;;;;;;29.47;20.03;;;8.20;99.90;;;;;;5053315;28;20800;-46
2022/02/04 06:33:21;;;;;;;31.90;20.80;;;8.20;99.90;;;;;;5051997;28;21009;-45
2022/02/04 06:35:48;;;;;;;25.50;19.20;;;8.20;99.90;;;;;;5052256;28;20417;-46
2022/02/04 06:38:14;;;;;;;26.57;19.20;;;8.20;99.90;;;;;;5052060;28;20954;-46
2022/02/04 06:40:41;;;;;;;31.10;20.00;;;8.20;99.90;;;;;;5051787;28;20483;-45
2022/02/04 06:43:09;;;;;;;27.37;20.20;;;8.20;99.90;;;;;;5051742;28;20945;-43
2022/02/04 06:45:36;;;;;;;24.70;17.80;;;8.10;99.90;;;;;;5063066;28;20604;-43
2022/02/04 06:48:03;;;;;;;27.10;20.00;;;8.10;99.90;;;;;;5071024;28;20445;-43
2022/02/04 06:50:30;;;;;;;27.83;19.77;;;8.10;99.90;;;;;;5071244;28;20420;-44
2022/02/04 06:52:56;;;;;;;25.33;18.80;;;8.10;99.90;;;;;;5068902;28;20518;-45
2022/02/04 06:55:23;;;;;;;28.53;18.70;;;8.10;99.90;;;;;;5051065;28;20445;-44
2022/02/04 06:57:51;;;;;;;27.23;19.97;;;8.10;99.90;;;;;;5051175;28;20851;-44
2022/02/04 07:00:21;;;;;;;27.97;20.27;;;8.10;99.90;;;;;;5050885;28;20529;-44
2022/02/04 07:02:48;;;;;;;29.93;22.23;;;8.10;99.90;;;;;;5050800;28;20433;-43
2022/02/04 07:05:15;;;;;;;29.20;19.17;;;8.20;99.90;;;;;;5051017;28;20449;-47
2022/02/04 07:07:48;;;;;;;25.10;18.90;;;8.20;99.90;;;;;;5052270;28;20441;-43
2022/02/04 07:10:21;;;;;;;25.23;19.27;;;8.20;99.90;;;;;;5051191;28;20397;-45
2022/02/04 07:12:54;;;;;;;29.43;19.70;;;8.20;99.90;;;;;;5050751;28;20478;-44
2022/02/04 07:19:44;;;;;;;24.73;19.07;;;8.20;99.90;;;;;;5049119;28;20976;-46
2022/02/04 07:20:48;;;;;;;27.20;18.27;;;8.20;99.90;;;;;;5050711;28;20809;-45
2022/02/04 07:23:15;;;;;;;27.40;18.47;;;8.20;99.90;;;;;;5051063;28;20454;-44
2022/02/04 07:25:42;;;;;;;27.83;18.23;;;8.20;99.90;;;;;;5049425;28;20237;-44
2022/02/04 07:28:08;;;;;;;24.87;18.07;;;8.20;99.90;;;;;;5050274;28;20436;-45
2022/02/04 07:30:38;;;;;;;25.87;18.30;;;8.20;99.90;;;;;;5049979;28;20522;-46
2022/02/04 07:33:13;;;;;;;24.47;18.20;;;8.00;99.90;;;;;;5050867;28;20543;-45
2022/02/04 07:40:51;;;;;;;29.87;18.30;;;8.30;99.90;;;;;;5053567;28;20457;-50
2022/02/04 07:41:35;;;;;;;23.80;17.50;;;8.30;99.90;;;;;;5053686;28;20537;-45
2022/02/04 07:44:01;;;;;;;24.80;16.53;;;8.30;99.90;;;;;;5054209;28;20549;-46
2022/02/04 07:46:30;;;;;;;22.73;18.63;;;8.30;99.90;;;;;;5073388;28;20633;-45
2022/02/04 07:48:57;;;;;;;20.90;15.70;;;8.30;99.90;;;;;;5074393;28;20443;-43
2022/02/04 07:51:24;;;;;;;21.23;15.53;;;8.30;99.90;;;;;;5074150;28;20473;-45
2022/02/04 07:53:50;;;;;;;23.20;18.03;;;8.30;99.90;;;;;;5063452;28;20437;-45
2022/02/04 07:56:20;;;;;;;23.13;16.70;;;8.40;99.90;;;;;;5053624;28;20782;-44
2022/02/04 07:58:55;;;;;;;20.80;15.23;;;8.40;99.90;;;;;;5052997;28;20470;-44
2022/02/04 08:01:26;;;;;;;20.00;14.13;;;8.40;99.90;;;;;;5053937;28;20517;-43
2022/02/04 08:04:00;;;;;;;23.50;15.30;;;8.30;99.90;;;;;;5053998;28;20424;-45
2022/02/04 08:06:28;;;;;;;21.90;15.27;;;8.40;99.90;;;;;;5054923;28;20488;-44
2022/02/04 08:09:00;;;;;;;20.03;14.60;;;8.50;99.90;;;;;;5054026;28;20434;-45
2022/02/04 08:11:46;;;;;;;21.27;16.17;;;8.50;99.90;;;;;;5053321;28;20528;-44
2022/02/04 08:14:20;;;;;;;21.50;15.70;;;8.50;99.90;;;;;;5053536;28;20458;-44
2022/02/04 08:25:31;;;;;;;20.50;15.10;;;8.50;99.90;;;;;;5051316;28;20491;-45
2022/02/04 08:28:28;;;;;;;22.33;15.23;;;8.50;99.90;;;;;;5051518;28;20458;-45
2022/02/04 08:31:22;;;;;;;19.33;14.97;;;8.70;99.90;;;;;;5052357;28;20529;-45
2022/02/04 08:34:17;;;;;;;19.20;14.57;;;8.50;99.90;;;;;;5053466;28;20432;-46
2022/02/04 08:37:05;;;;;;;23.07;16.20;;;8.60;99.90;;;;;;5053724;28;20553;-44
2022/02/04 08:48:14;;;;;;;19.00;14.43;;;8.70;99.90;;;;;;5073099;28;20434;-44
2022/02/04 08:51:04;;;;;;;19.10;12.67;;;8.70;99.90;;;;;;5073171;28;20430;-46
2022/02/04 08:54:01;;;;;;;19.23;14.90;;;9.00;99.90;;;;;;5064387;28;20547;-45
2022/02/04 08:56:38;;;;;;;18.87;12.30;;;8.90;99.90;;;;;;5052972;28;20437;-46
2022/02/04 08:59:11;;;;;;;18.00;12.47;;;8.80;99.90;;;;;;5052350;28;20434;-45
2022/02/04 09:01:45;;;;;;;17.83;13.17;;;8.90;99.90;;;;;;5056604;28;20462;-45
2022/02/04 09:04:16;;;;;;;22.83;12.73;;;9.00;99.90;;;;;;5069717;28;20465;-45
2022/02/04 09:06:44;;;;;;;14.43;11.20;;;9.00;99.90;;;;;;5053522;28;20449;-45
2022/02/04 09:09:16;;;;;;;19.30;11.90;;;9.00;99.90;;;;;;5056398;28;20472;-46
2022/02/04 09:11:47;;;;;;;15.17;12.67;;;9.00;99.90;;;;;;5072572;28;20448;-43
2022/02/04 09:17:24;;;;;;;15.20;11.20;;;9.00;99.90;;;;;;5029995;28;20422;-45
2022/02/04 09:20:01;;;;;;;13.27;10.83;;;9.00;99.90;;;;;;5045925;28;20429;-44
2022/02/04 09:22:46;;;;;;;15.20;12.20;;;9.00;99.90;;;;;;5052680;28;20439;-43
2022/02/04 09:25:14;;;;;;;16.33;12.83;;;8.90;99.90;;;;;;5053164;28;20414;-45
2022/02/04 09:27:41;;;;;;;13.60;11.17;;;8.90;99.90;;;;;;5061909;28;20431;-44
2022/02/04 09:30:10;;;;;;;17.90;11.70;;;8.90;99.90;;;;;;5071991;28;20900;-44
2022/02/04 09:32:38;;;;;;;16.03;10.93;;;8.90;99.90;;;;;;5071760;28;20488;-45
2022/02/04 09:35:07;;;;;;;18.40;11.67;;;9.00;99.90;;;;;;5064918;28;20486;-44
2022/02/04 09:37:34;;;;;;;15.10;10.33;;;8.90;99.90;;;;;;5052374;28;20446;-43
2022/02/04 09:40:01;;;;;;;12.80;10.23;;;8.90;99.90;;;;;;5058359;28;20456;-44
2022/02/04 09:42:31;;;;;;;15.80;11.23;;;8.90;99.90;;;;;;5071161;28;20976;-46
2022/02/04 09:44:59;;;;;;;13.83;10.93;;;9.00;99.90;;;;;;5071557;28;20781;-45
2022/02/04 09:47:34;;;;;;;14.90;12.33;;;9.00;99.90;;;;;;5071891;28;20437;-45
2022/02/04 09:50:02;;;;;;;15.47;10.63;;;9.00;99.90;;;;;;5071575;28;20433;-44
2022/02/04 10:09:54;;;;;;;20.67;10.30;;;8.90;99.90;;;;;;5070706;28;20431;-44
2022/02/04 10:12:40;;;;;;;20.43;11.73;;;8.80;99.90;;;;;;5071542;28;20509;-44
2022/02/04 10:15:20;;;;;;;17.60;10.63;;;8.90;99.90;;;;;;5071388;28;20780;-43
2022/02/04 10:18:00;;;;;;;14.23;10.23;;;9.50;99.90;;;;;;5071867;28;20487;-43
2022/02/04 10:20:27;;;;;;;13.30;10.17;;;8.80;99.90;;;;;;5070772;28;20438;-46
2022/02/04 10:22:54;;;;;;;15.43;11.53;;;8.70;99.90;;;;;;5071009;28;20449;-44
2022/02/04 10:25:21;;;;;;;17.37;10.93;;;8.90;99.90;;;;;;5071092;28;20414;-44
2022/02/04 10:27:47;;;;;;;14.80;10.37;;;9.10;99.90;;;;;;5071697;28;20421;-46
2022/02/04 10:30:18;;;;;;;13.33;10.43;;;8.90;99.90;;;;;;5071520;28;20437;-44
2022/02/04 10:32:46;;;;;;;20.47;13.43;;;8.90;99.90;;;;;;5070016;28;20873;-48
2022/02/04 10:35:19;;;;;;;25.40;17.77;;;9.00;99.90;;;;;;5069233;28;20440;-46
2022/02/04 10:37:58;;;;;;;16.50;11.90;;;8.90;99.90;;;;;;5069595;28;20517;-44
2022/02/04 10:40:41;;;;;;;17.33;11.53;;;9.00;99.90;;;;;;5069274;28;20433;-44
2022/02/04 10:43:22;;;;;;;15.37;11.50;;;8.90;99.90;;;;;;5070852;28;20436;-45
2022/02/04 10:46:03;;;;;;;18.10;12.10;;;9.00;99.90;;;;;;5071023;28;20777;-45
2022/02/04 10:48:48;;;;;;;22.60;13.10;;;9.00;99.90;;;;;;5070399;28;20446;-44
2022/02/04 10:51:48;;;;;;;13.60;9.30;;;9.10;99.90;;;;;;5070800;28;20411;-44
2022/02/04 10:55:09;;;;;;;13.73;10.97;;;9.10;99.90;;;;;;5070433;28;20553;-45
2022/02/04 10:58:01;;;;;;;19.43;12.30;;;9.20;99.90;;;;;;5070488;28;20447;-47
2022/02/04 11:00:40;;;;;;;21.30;11.70;;;9.30;99.90;;;;;;5070361;28;20523;-45
2022/02/04 11:03:11;;;;;;;13.17;10.13;;;9.30;99.90;;;;;;5071654;28;20426;-45
2022/02/04 11:05:52;;;;;;;15.77;10.30;;;9.40;99.90;;;;;;5070879;28;20980;-45
2022/02/04 11:08:42;;;;;;;15.27;10.20;;;9.40;99.90;;;;;;5071047;28;20495;-45
2022/02/04 11:36:44;;;;;;;17.83;10.50;;;9.90;99.90;;;;;;5075663;28;20901;-43
2022/02/04 11:51:42;;;;;;;12.80;9.90;;;10.20;99.90;;;;;;5073821;28;20751;-44
2022/02/04 11:54:39;;;;;;;12.10;9.17;;;10.30;99.90;;;;;;5073695;28;20481;-45
2022/02/04 11:57:20;;;;;;;12.47;9.50;;;10.30;99.90;;;;;;5074391;28;20446;-44
2022/02/04 11:59:55;;;;;;;11.73;8.67;;;10.40;99.90;;;;;;5073286;28;20518;-45
2022/02/04 12:02:40;;;;;;;11.50;8.80;;;10.40;99.90;;;;;;5074669;28;20429;-44
2022/02/04 12:05:32;;;;;;;14.07;9.67;;;10.40;99.90;;;;;;5074275;28;20438;-43
2022/02/04 12:08:18;;;;;;;13.97;9.40;;;10.40;99.90;;;;;;5074747;28;20443;-45
2022/02/04 12:10:46;;;;;;;12.13;8.23;;;10.20;99.90;;;;;;5053695;28;20464;-46
2022/02/04 12:13:14;;;;;;;13.83;8.80;;;10.30;99.90;;;;;;5053022;28;20478;-44
2022/02/04 12:15:44;;;;;;;13.07;10.03;;;10.30;99.90;;;;;;5053181;28;20451;-45
2022/02/04 12:18:12;;;;;;;10.73;9.63;;;10.30;99.90;;;;;;5052897;28;20435;-46
2022/02/04 12:20:58;;;;;;;8.97;7.83;;;10.30;99.90;;;;;;5052485;28;20410;-44
2022/02/04 12:23:48;;;;;;;8.87;7.37;;;10.30;99.90;;;;;;5051308;28;20944;-45
2022/02/04 12:26:19;;;;;;;11.90;8.87;;;10.40;99.90;;;;;;5052740;28;20509;-45
2022/02/04 12:28:51;;;;;;;9.90;8.30;;;10.30;99.90;;;;;;5052601;28;20834;-44
2022/02/04 12:31:23;;;;;;;9.97;7.00;;;10.40;99.90;;;;;;5053037;28;20441;-45
2022/02/04 12:33:52;;;;;;;9.97;7.97;;;10.40;99.90;;;;;;5052682;28;20565;-45
2022/02/04 12:36:21;;;;;;;8.20;6.53;;;10.50;99.90;;;;;;5052582;28;20419;-45
2022/02/04 12:38:52;;;;;;;13.40;8.00;;;10.50;99.90;;;;;;5052155;28;20436;-42
2022/02/04 12:41:28;;;;;;;16.20;8.27;;;10.50;99.90;;;;;;5076307;23;20525;-47
2022/02/04 12:43:57;;;;;;;7.93;6.30;;;10.50;99.90;;;;;;5011916;28;20459;-46
2022/02/04 12:46:25;;;;;;;8.87;6.77;;;10.50;99.90;;;;;;5030459;28;20455;-47
2022/02/04 12:48:59;;;;;;;7.57;6.40;;;10.50;99.90;;;;;;5019751;28;20438;-46
2022/02/04 12:51:49;;;;;;;6.80;6.10;;;10.40;99.90;;;;;;5011995;28;20442;-48
2022/02/04 12:54:28;;;;;;;6.73;6.03;;;10.40;99.90;;;;;;4999254;28;20482;-47
2022/02/04 12:59:57;;;;;;;8.30;5.97;;;10.50;99.90;;;;;;4977698;28;20515;-46
2022/02/04 13:02:37;;;;;;;5.97;5.00;;;10.50;99.90;;;;;;5012139;28;20881;-46
2022/02/04 13:07:54;;;;;;;8.90;6.77;;;10.40;99.90;;;;;;4992881;28;20510;-45
2022/02/04 13:10:24;;;;;;;10.23;6.90;;;10.40;99.90;;;;;;4992409;28;20460;-48
2022/02/04 13:12:54;;;;;;;8.93;5.97;;;10.50;99.90;;;;;;4996882;28;20477;-46
2022/02/04 13:15:21;;;;;;;8.10;6.10;;;10.50;99.90;;;;;;5011986;28;20779;-47
2022/02/04 13:17:48;;;;;;;9.10;5.90;;;10.50;99.90;;;;;;5012056;28;20453;-46
2022/02/04 13:20:20;;;;;;;8.20;6.27;;;10.50;99.90;;;;;;5011805;28;20400;-47
2022/02/04 13:22:47;;;;;;;9.80;6.00;;;10.50;99.90;;;;;;5011594;28;20518;-46
2022/02/04 13:25:17;;;;;;;12.50;6.50;;;10.60;99.90;;;;;;5010454;28;20949;-47
2022/02/04 13:28:11;;;;;;;10.03;6.53;;;10.60;99.90;;;;;;5000385;28;20454;-47
2022/02/04 13:30:41;;;;;;;9.17;5.47;;;10.70;99.90;;;;;;5002006;28;20512;-48
2022/02/04 13:33:21;;;;;;;5.63;5.03;;;10.60;99.90;;;;;;5011204;28;20819;-46
2022/02/04 13:35:55;;;;;;;9.40;6.30;;;10.70;99.90;;;;;;5011865;28;20439;-48
2022/02/04 13:38:29;;;;;;;10.00;6.70;;;10.60;99.90;;;;;;5011772;28;20434;-49
2022/02/04 13:41:06;;;;;;;6.10;5.50;;;10.60;99.90;;;;;;5011917;28;20544;-48
2022/02/04 13:43:45;;;;;;;7.40;5.87;;;10.60;99.90;;;;;;5009631;28;20891;-48
2022/02/04 13:46:21;;;;;;;10.37;5.97;;;10.60;99.90;;;;;;4998981;28;20946;-47
2022/02/04 13:49:06;;;;;;;8.50;6.13;;;10.50;99.90;;;;;;5010983;28;20500;-47
2022/02/04 13:51:47;;;;;;;13.37;7.03;;;10.50;99.90;;;;;;5011590;28;20534;-46
2022/02/04 13:57:14;;;;;;;10.50;6.00;;;10.60;99.90;;;;;;4987866;28;20759;-47
2022/02/04 13:59:48;;;;;;;7.50;6.67;;;10.60;99.90;;;;;;4991312;28;20464;-46
2022/02/04 14:02:19;;;;;;;8.73;6.03;;;10.60;99.90;;;;;;4991852;28;20864;-51
2022/02/04 14:04:59;;;;;;;8.20;5.80;;;10.60;99.90;;;;;;5002002;28;20440;-50
2022/02/04 14:07:39;;;;;;;8.43;6.10;;;10.60;99.90;;;;;;5009501;28;20459;-49
2022/02/04 14:10:23;;;;;;;12.17;5.93;;;10.60;99.90;;;;;;4996766;28;20448;-48
2022/02/04 14:13:00;;;;;;;13.50;5.23;;;10.60;99.90;;;;;;4990877;28;20988;-49
2022/02/04 14:15:30;;;;;;;8.70;6.50;;;10.60;99.90;;;;;;4990942;28;20443;-50
2022/02/04 14:17:59;;;;;;;7.83;6.17;;;10.60;99.90;;;;;;4991380;28;20442;-50
2022/02/04 14:20:25;;;;;;;13.17;5.70;;;10.60;99.90;;;;;;4990949;28;20459;-50
2022/02/04 14:22:52;;;;;;;7.40;4.97;;;10.60;99.90;;;;;;4991601;28;20460;-48
2022/02/04 14:25:19;;;;;;;5.40;4.90;;;10.50;99.90;;;;;;4992506;28;20409;-49
2022/02/04 14:27:50;;;;;;;6.07;5.07;;;10.50;99.90;;;;;;4991288;28;20446;-48
2022/02/04 14:30:22;;;;;;;6.00;5.40;;;10.50;99.90;;;;;;4990952;28;20524;-50
2022/02/04 14:32:55;;;;;;;7.43;5.30;;;10.50;99.90;;;;;;4990728;28;20974;-50
2022/02/04 14:35:30;;;;;;;5.03;4.53;;;10.50;99.90;;;;;;4991103;28;20470;-48
2022/02/04 14:52:01;;;;;;;5.20;4.20;;;10.40;99.90;;;;;;5014176;28;20509;-52
2022/02/04 14:54:45;;;;;;;5.43;3.87;;;10.40;99.90;;;;;;4999877;28;20904;-48
2022/02/04 15:00:18;;;;;;;5.47;3.57;;;10.30;99.90;;;;;;4994167;28;20937;-50
2022/02/04 15:02:47;;;;;;;5.53;3.33;;;10.30;99.90;;;;;;4994286;28;20475;-50
2022/02/04 15:05:18;;;;;;;4.83;3.73;;;10.30;99.90;;;;;;5008648;28;20426;-49
2022/02/04 15:07:47;;;;;;;3.67;3.37;;;10.20;99.90;;;;;;5014137;28;20448;-49
2022/02/04 15:10:26;;;;;;;4.40;3.70;;;10.20;99.90;;;;;;4998836;28;20438;-49
2022/02/04 15:12:53;;;;;;;6.10;3.80;;;10.20;99.90;;;;;;4994009;28;20547;-50
2022/02/04 15:15:20;;;;;;;5.47;4.43;;;10.20;99.90;;;;;;4994073;28;20438;-50
2022/02/04 15:17:46;;;;;;;5.20;3.83;;;10.20;99.90;;;;;;4993685;28;20449;-50
2022/02/04 15:20:13;;;;;;;5.70;3.97;;;10.20;99.90;;;;;;4994439;28;20408;-49
2022/02/04 15:22:41;;;;;;;6.20;4.10;;;10.20;99.90;;;;;;4996144;28;20759;-48
2022/02/04 15:25:15;;;;;;;6.63;3.90;;;10.20;99.90;;;;;;4996100;28;20423;-47
2022/02/04 15:27:50;;;;;;;5.53;3.10;;;10.10;99.90;;;;;;4997488;28;20499;-47
2022/02/04 15:30:23;;;;;;;6.10;3.07;;;10.10;99.90;;;;;;4993697;28;20437;-45
2022/02/04 15:32:50;;;;;;;5.43;3.17;;;10.10;99.90;;;;;;4993809;28;20458;-47
2022/02/04 15:35:17;;;;;;;7.53;3.20;;;10.10;99.90;;;;;;4994274;28;20484;-46
2022/02/04 15:37:45;;;;;;;4.97;3.60;;;10.10;99.90;;;;;;4993981;28;20438;-46
2022/02/04 15:40:13;;;;;;;4.20;3.63;;;10.10;99.90;;;;;;4993434;28;20419;-47
2022/02/04 15:42:44;;;;;;;4.77;3.10;;;10.00;99.90;;;;;;4994196;28;21020;-48
2022/02/04 15:45:27;;;;;;;3.50;3.07;;;10.00;99.90;;;;;;5002807;28;20749;-47
2022/02/04 15:48:00;;;;;;;4.50;3.03;;;10.00;99.90;;;;;;5014090;28;20444;-47
2022/02/04 15:50:38;;;;;;;2.93;2.40;;;10.00;99.90;;;;;;5013550;28;20439;-47
2022/02/04 15:53:23;;;;;;;5.10;3.27;;;10.00;99.90;;;;;;5010229;28;20486;-46
2022/02/04 15:56:14;;;;;;;3.87;3.30;;;9.90;99.90;;;;;;4993774;28;20917;-46
2022/02/04 15:59:00;;;;;;;5.87;3.73;;;9.90;99.90;;;;;;4993969;28;20524;-45
2022/02/04 16:01:45;;;;;;;9.00;4.23;;;9.90;99.90;;;;;;4992319;28;20532;-47
2022/02/04 16:04:26;;;;;;;5.07;4.10;;;10.00;99.90;;;;;;4999178;28;20427;-47
2022/02/04 16:06:53;;;;;;;4.37;3.40;;;9.90;99.90;;;;;;5013367;28;20442;-47
2022/02/04 16:09:23;;;;;;;4.27;2.90;;;9.90;99.90;;;;;;5004535;28;20475;-46
2022/02/04 16:11:57;;;;;;;4.10;2.97;;;9.90;99.90;;;;;;4993075;28;20485;-46
2022/02/04 16:14:28;;;;;;;4.13;2.60;;;9.90;99.90;;;;;;4993046;28;20476;-47
2022/02/04 16:16:59;;;;;;;5.60;2.10;;;9.90;99.90;;;;;;4992046;28;20462;-47
2022/02/04 16:19:29;;;;;;;5.33;2.70;;;9.80;99.90;;;;;;4993533;28;20413;-47
2022/02/04 16:22:12;;;;;;;5.53;3.00;;;9.80;99.90;;;;;;4993274;28;20469;-48
2022/02/04 16:25:02;;;;;;;3.00;2.10;;;9.80;99.90;;;;;;4993129;28;20440;-48
2022/02/04 16:30:13;;;;;;;4.57;2.50;;;9.80;99.90;;;;;;4992953;28;20437;-46
2022/02/04 16:32:39;;;;;;;6.63;2.33;;;9.80;99.90;;;;;;4992712;28;20548;-49
2022/02/04 16:35:07;;;;;;;3.33;2.33;;;9.80;99.90;;;;;;4993154;28;20883;-47
2022/02/04 16:37:36;;;;;;;5.80;4.27;;;9.80;99.90;;;;;;4992678;28;20566;-47
2022/02/04 16:40:10;;;;;;;4.97;2.40;;;9.80;99.90;;;;;;4974295;28;20478;-48
2022/02/04 16:42:36;;;;;;;4.07;2.00;;;9.80;99.90;;;;;;4971770;28;20824;-47
2022/02/04 16:45:04;;;;;;;4.30;3.53;;;9.80;99.90;;;;;;4985220;28;20415;-49
2022/02/04 16:47:30;;;;;;;2.23;1.93;;;9.80;99.90;;;;;;5008524;28;20456;-48
2022/02/04 16:50:01;;;;;;;3.33;2.00;;;9.80;99.90;;;;;;5008325;28;20504;-47
2022/02/04 16:52:28;;;;;;;4.80;1.90;;;9.80;99.90;;;;;;5009033;28;20457;-48
2022/02/04 16:54:54;;;;;;;4.57;2.27;;;9.80;99.90;;;;;;4991885;28;20481;-48